Time;durP1;ratioP1;P1;durP2;ratioP2;P2;SDS_P1;SDS_P2;PMS_P1;PMS_P2;Temp;Humidity;BMP_temperature;BMP_pressure;BME280_temperature;BME280_humidity;BME280_pressure;Samples;Min_cycle;Max_cycle;Signal;HPM_P1;HPM_P2
2022/07/16 00:02:14;;;;;;;4.32;1.80;;;;;;;17.14;48.45;100890.19;4907835;29;20093;-74
2022/07/16 00:04:40;;;;;;;4.00;1.75;;;;;;;16.97;48.98;100879.72;4927839;28;20727;-73
2022/07/16 00:07:08;;;;;;;3.05;1.70;;;;;;;16.94;49.20;100890.63;4933246;28;20055;-74
2022/07/16 00:09:34;;;;;;;3.95;1.52;;;;;;;16.77;50.09;100862.31;4932386;28;20048;-72
2022/07/16 00:12:03;;;;;;;4.00;1.80;;;;;;;16.81;50.39;100885.22;4934567;28;20055;-73
2022/07/16 00:14:30;;;;;;;3.22;1.75;;;;;;;16.73;50.85;100887.53;4932944;28;20091;-73
2022/07/16 00:16:56;;;;;;;3.80;1.60;;;;;;;16.59;51.23;100881.31;4933862;28;20086;-73
2022/07/16 00:19:23;;;;;;;4.57;1.83;;;;;;;16.54;51.55;100886.09;4931997;28;20048;-74
2022/07/16 00:21:54;;;;;;;4.55;2.20;;;;;;;16.50;51.69;100877.44;4930992;29;20050;-74
2022/07/16 00:24:21;;;;;;;;;;;;;;;16.49;51.78;100883.75;4925190;29;20055;-74
2022/07/16 00:26:48;;;;;;;3.35;1.70;;;;;;;16.38;51.79;100870.16;4935394;28;19923;-75
2022/07/16 00:29:17;;;;;;;2.67;1.95;;;;;;;16.34;51.91;100869.53;4930420;29;20070;-74
2022/07/16 00:31:46;;;;;;;3.58;2.28;;;;;;;16.39;52.09;100877.22;4925920;28;20047;-76
2022/07/16 00:34:12;;;;;;;3.83;1.70;;;;;;;16.34;52.09;100868.66;4931693;28;20543;-74
2022/07/16 00:36:40;;;;;;;5.93;1.67;;;;;;;16.35;52.05;100867.72;4931987;28;20059;-74
2022/07/16 00:39:09;;;;;;;5.35;1.80;;;;;;;16.36;52.19;100872.09;4930661;28;20047;-73
2022/07/16 00:41:40;;;;;;;3.92;1.73;;;;;;;16.36;52.32;100872.97;4932743;28;20055;-73
2022/07/16 00:44:12;;;;;;;3.05;1.45;;;;;;;16.30;52.53;100865.31;4931005;29;20067;-74
2022/07/16 00:46:39;;;;;;;4.93;2.00;;;;;;;16.32;52.20;100874.13;4932741;28;20051;-74
2022/07/16 00:49:06;;;;;;;3.97;1.70;;;;;;;16.28;52.86;100869.91;4931580;28;20062;-73
2022/07/16 00:51:34;;;;;;;5.20;1.70;;;;;;;16.27;52.86;100870.00;4932493;28;20048;-74
2022/07/16 00:54:02;;;;;;;5.50;2.10;;;;;;;16.35;53.17;100887.28;4932239;28;20039;-74
2022/07/16 00:56:29;;;;;;;4.95;1.95;;;;;;;16.30;53.08;100877.84;4933214;28;20055;-74
2022/07/16 00:58:56;;;;;;;4.63;2.35;;;;;;;16.20;53.32;100872.22;4927492;28;20056;-74
2022/07/16 01:01:23;;;;;;;4.55;2.50;;;;;;;16.16;53.78;100886.72;4931907;28;20059;-73
2022/07/16 01:03:50;;;;;;;5.05;2.35;;;;;;;16.16;53.92;100886.72;4929617;28;20054;-74
2022/07/16 01:06:17;;;;;;;4.63;2.63;;;;;;;15.98;53.78;100863.81;4931765;28;20043;-75
2022/07/16 01:08:47;;;;;;;4.10;2.47;;;;;;;15.86;53.89;100852.09;4929742;28;20060;-73
2022/07/16 01:11:17;;;;;;;2.97;2.50;;;;;;;16.00;54.20;100880.59;4931863;28;20060;-73
2022/07/16 01:13:47;;;;;;;4.22;2.22;;;;;;;16.03;54.08;100878.59;4931260;28;20051;-72
2022/07/16 01:16:15;;;;;;;3.17;2.20;;;;;;;15.88;53.80;100858.19;4931394;28;20172;-72
2022/07/16 01:18:43;;;;;;;4.97;2.63;;;;;;;16.00;53.92;100875.25;4923019;28;20052;-75
2022/07/16 01:21:12;;;;;;;4.07;2.40;;;;;;;15.93;54.19;100863.22;4931344;28;20575;-72
2022/07/16 01:23:39;;;;;;;5.75;2.40;;;;;;;15.91;54.29;100855.31;4924342;29;20151;-74
2022/07/16 01:26:06;;;;;;;4.85;2.38;;;;;;;15.93;54.26;100868.56;4931298;28;20059;-72
2022/07/16 01:28:33;;;;;;;4.32;2.15;;;;;;;15.77;54.69;100841.94;4930352;28;20135;-73
2022/07/16 01:31:00;;;;;;;5.28;2.20;;;;;;;15.79;54.42;100850.72;4932238;28;20052;-74
2022/07/16 01:33:33;;;;;;;5.55;2.30;;;;;;;15.86;54.48;100861.91;4931625;28;20131;-73
2022/07/16 01:36:14;;;;;;;4.32;2.20;;;;;;;15.80;54.31;100857.78;4931805;28;20047;-73
2022/07/16 01:38:43;;;;;;;3.95;2.33;;;;;;;15.66;54.55;100839.09;4930129;28;20087;-74
2022/07/16 01:41:11;;;;;;;4.45;2.30;;;;;;;15.74;54.52;100858.19;4932395;28;20051;-72
2022/07/16 01:43:38;;;;;;;5.30;2.63;;;;;;;15.68;54.64;100864.75;4930819;28;20417;-73
2022/07/16 01:46:05;;;;;;;4.38;2.65;;;;;;;15.57;54.78;100861.88;4930929;28;20055;-73
2022/07/16 01:48:32;;;;;;;4.35;2.13;;;;;;;15.45;55.31;100857.22;4929990;28;20060;-72
2022/07/16 01:50:59;;;;;;;4.75;2.35;;;;;;;15.31;55.13;100839.34;4932148;28;20515;-74
2022/07/16 01:53:28;;;;;;;6.13;2.42;;;;;;;15.45;55.73;100863.41;4931233;28;20117;-72
2022/07/16 01:55:56;;;;;;;3.83;2.10;;;;;;;15.37;56.53;100843.47;4930874;28;20055;-73
2022/07/16 01:58:23;;;;;;;6.03;2.42;;;;;;;15.42;55.95;100858.25;4930186;28;20477;-74
2022/07/16 02:00:50;;;;;;;6.47;2.42;;;;;;;15.44;56.61;100858.16;4930457;28;20416;-74
2022/07/16 02:03:17;;;;;;;5.68;2.72;;;;;;;15.41;56.38;100848.56;4934078;28;20142;-76
2022/07/16 02:05:44;;;;;;;3.35;2.35;;;;;;;15.48;56.55;100857.03;4930521;28;20134;-73
2022/07/16 02:08:11;;;;;;;6.85;2.30;;;;;;;15.49;56.80;100863.22;4930435;28;20067;-73
2022/07/16 02:10:38;;;;;;;5.88;2.40;;;;;;;15.41;56.73;100847.69;4933201;28;20404;-73
2022/07/16 02:13:05;;;;;;;4.32;2.70;;;;;;;15.28;57.10;100847.53;4931300;28;20056;-74
2022/07/16 02:15:33;;;;;;;4.05;2.42;;;;;;;15.29;57.17;100853.72;4930664;28;20056;-74
2022/07/16 02:18:00;;;;;;;3.53;2.53;;;;;;;15.24;57.44;100845.16;4930522;28;20056;-73
2022/07/16 02:20:27;;;;;;;4.70;2.75;;;;;;;15.36;57.11;100866.63;4929490;28;20142;-73
2022/07/16 02:22:55;;;;;;;7.15;2.92;;;;;;;15.24;57.52;100842.50;4929196;28;20047;-72
2022/07/16 02:25:22;;;;;;;8.68;3.00;;;;;;;15.29;57.48;100846.59;4936536;28;20043;-75
2022/07/16 02:28:07;;;;;;;5.45;2.80;;;;;;;15.25;57.96;100850.41;4934249;28;20055;-74
2022/07/16 02:30:35;;;;;;;8.65;2.80;;;;;;;15.04;57.85;100839.19;4934075;28;20495;-73
2022/07/16 02:33:03;;;;;;;3.88;2.65;;;;;;;15.11;58.25;100852.19;4935027;28;20460;-73
2022/07/16 02:35:30;;;;;;;5.75;2.75;;;;;;;15.07;58.39;100865.69;4934423;28;20146;-73
2022/07/16 02:37:57;;;;;;;5.00;2.90;;;;;;;15.06;58.83;100852.44;4934099;28;20050;-73
2022/07/16 02:40:24;;;;;;;7.88;3.10;;;;;;;15.01;58.53;100857.16;4934039;28;20494;-75
2022/07/16 02:42:51;;;;;;;4.05;2.60;;;;;;;15.01;58.34;100851.81;4932222;28;20048;-73
2022/07/16 02:45:18;;;;;;;7.45;3.20;;;;;;;15.04;58.72;100852.50;4934273;28;20086;-74
2022/07/16 02:47:45;;;;;;;4.32;2.40;;;;;;;15.06;58.70;100853.28;4933529;28;20051;-72
2022/07/16 02:50:12;;;;;;;3.72;2.70;;;;;;;14.96;57.98;100828.09;4934752;28;20075;-74
2022/07/16 02:52:39;;;;;;;5.03;2.70;;;;;;;15.12;58.43;100861.88;4934159;28;20052;-73
2022/07/16 02:55:06;;;;;;;5.45;3.22;;;;;;;15.03;58.53;100850.78;4934353;28;20210;-73
2022/07/16 02:57:32;;;;;;;5.40;3.10;;;;;;;14.95;59.03;100836.22;4934524;28;20488;-73
2022/07/16 02:59:59;;;;;;;6.28;3.13;;;;;;;15.05;59.10;100864.91;4933547;28;20456;-73
2022/07/16 03:02:26;;;;;;;6.07;3.15;;;;;;;15.09;59.41;100862.94;4933912;28;20583;-73
2022/07/16 03:04:53;;;;;;;6.10;3.28;;;;;;;14.92;59.08;100861.25;4933550;28;20107;-74
2022/07/16 03:07:19;;;;;;;4.53;3.13;;;;;;;14.77;59.40;100871.91;4933902;28;20052;-74
2022/07/16 03:09:46;;;;;;;5.25;3.17;;;;;;;14.63;60.14;100872.69;4933659;28;20055;-73
2022/07/16 03:12:13;;;;;;;6.15;3.47;;;;;;;14.56;61.03;100869.50;4933858;28;20058;-75
2022/07/16 03:14:40;;;;;;;5.40;3.28;;;;;;;14.52;60.95;100859.94;4934315;28;20060;-73
2022/07/16 03:17:07;;;;;;;6.32;3.10;;;;;;;14.57;60.90;100865.03;4936858;28;20066;-76
2022/07/16 03:19:33;;;;;;;7.90;3.50;;;;;;;14.60;61.02;100867.53;4934074;28;20047;-72
2022/07/16 03:22:00;;;;;;;6.57;3.15;;;;;;;14.51;61.28;100870.69;4933548;28;20064;-73
2022/07/16 03:24:27;;;;;;;6.13;2.92;;;;;;;14.53;61.71;100877.66;4925633;28;20052;-72
2022/07/16 03:26:54;;;;;;;5.00;3.40;;;;;;;14.51;61.66;100884.88;4937227;28;20053;-73
2022/07/16 03:29:27;;;;;;;6.40;3.20;;;;;;;14.49;61.90;100889.44;4931918;28;20052;-72
2022/07/16 03:31:54;;;;;;;5.15;3.50;;;;;;;14.37;62.21;100877.63;4933667;28;20047;-72
2022/07/16 03:34:22;;;;;;;6.22;3.58;;;;;;;14.35;62.61;100890.16;4932650;28;20500;-72
2022/07/16 03:36:48;;;;;;;5.65;3.40;;;;;;;14.04;62.54;100848.34;4931721;28;20066;-73
2022/07/16 03:39:15;;;;;;;4.45;3.25;;;;;;;14.22;62.82;100883.78;4933234;28;20055;-73
2022/07/16 03:41:42;;;;;;;7.53;3.63;;;;;;;14.21;62.77;100886.53;4927784;29;20060;-72
2022/07/16 03:44:11;;;;;;;6.80;3.92;;;;;;;14.19;63.28;100883.94;4933726;28;20106;-74
2022/07/16 03:46:38;;;;;;;10.13;4.05;;;;;;;13.98;63.39;100854.03;4932066;28;20048;-74
2022/07/16 03:49:06;;;;;;;5.47;3.40;;;;;;;14.14;63.82;100885.16;4932845;28;20062;-73
2022/07/16 03:51:33;;;;;;;8.32;3.55;;;;;;;14.19;63.30;100889.28;4933603;28;20051;-73
2022/07/16 03:54:01;;;;;;;6.80;3.55;;;;;;;14.19;63.52;100894.59;4933994;28;20051;-74
2022/07/16 03:56:27;;;;;;;8.85;3.70;;;;;;;14.17;63.70;100890.28;4931477;28;20488;-74
2022/07/16 03:58:54;;;;;;;5.00;3.38;;;;;;;14.11;63.84;100896.84;4933419;28;20138;-73
2022/07/16 04:01:21;;;;;;;14.23;4.45;;;;;;;13.99;64.26;100886.84;4933120;28;20075;-74
2022/07/16 04:03:49;;;;;;;8.20;4.10;;;;;;;14.00;65.05;100885.91;4933578;28;20052;-75
2022/07/16 04:06:16;;;;;;;7.30;4.03;;;;;;;14.04;64.57;100884.78;4933503;28;20040;-75
2022/07/16 04:08:42;;;;;;;5.10;3.78;;;;;;;14.01;64.71;100892.91;4932055;28;20456;-75
2022/07/16 04:11:09;;;;;;;9.10;3.95;;;;;;;13.99;65.06;100890.38;4933559;28;20064;-77
2022/07/16 04:13:37;;;;;;;4.22;3.40;;;;;;;14.05;65.33;100894.47;4931750;29;20808;-74
2022/07/16 04:16:05;;;;;;;6.68;3.65;;;;;;;14.10;64.96;100889.78;4933089;28;20048;-75
2022/07/16 04:18:32;;;;;;;7.97;3.97;;;;;;;14.08;64.92;100890.81;4931937;28;20083;-74
2022/07/16 04:20:59;;;;;;;7.55;3.70;;;;;;;13.99;65.00;100889.50;4933124;28;20122;-75
2022/07/16 04:23:26;;;;;;;5.35;3.70;;;;;;;13.89;65.50;100886.44;4933034;28;20074;-74
2022/07/16 04:25:53;;;;;;;6.53;4.15;;;;;;;13.99;65.96;100901.00;4935851;28;20047;-74
2022/07/16 04:28:19;;;;;;;7.03;3.65;;;;;;;14.00;66.35;100916.06;4931805;28;20091;-75
2022/07/16 04:30:46;;;;;;;5.68;3.95;;;;;;;14.01;66.35;100903.56;4931758;28;20082;-75
2022/07/16 04:33:13;;;;;;;6.63;4.13;;;;;;;14.07;65.87;100908.56;4932821;28;20118;-75
2022/07/16 04:35:40;;;;;;;8.73;4.18;;;;;;;14.17;65.68;100906.28;4932295;28;20099;-75
2022/07/16 04:38:07;;;;;;;4.75;4.00;;;;;;;14.11;65.05;100902.16;4931987;28;20091;-73
2022/07/16 04:40:33;;;;;;;7.38;4.22;;;;;;;14.12;65.71;100917.19;4934206;28;20810;-73
2022/07/16 04:43:00;;;;;;;7.10;4.03;;;;;;;14.09;65.92;100905.84;4932736;28;20063;-73
2022/07/16 04:45:27;;;;;;;5.80;3.70;;;;;;;14.16;65.66;100913.44;4931101;29;20741;-73
2022/07/16 04:47:54;;;;;;;6.88;3.90;;;;;;;14.16;65.56;100909.91;4930975;28;20044;-74
2022/07/16 04:50:20;;;;;;;5.82;3.70;;;;;;;14.06;65.85;100890.88;4932740;28;20085;-74
2022/07/16 04:52:53;;;;;;;8.43;4.43;;;;;;;14.13;66.06;100907.41;4932440;28;20056;-75
2022/07/16 04:55:19;;;;;;;6.75;4.18;;;;;;;14.16;66.18;100908.09;4930873;28;20051;-73
2022/07/16 04:57:46;;;;;;;7.60;3.88;;;;;;;14.19;66.39;100910.56;4931921;28;20063;-73
2022/07/16 05:00:13;;;;;;;7.80;4.30;;;;;;;14.24;66.54;100918.34;4932387;28;20056;-74
2022/07/16 05:02:58;;;;;;;5.88;3.95;;;;;;;14.30;65.73;100912.69;4931729;28;20072;-73
2022/07/16 05:05:29;;;;;;;10.68;3.83;;;;;;;14.50;65.36;100912.47;4930103;28;20082;-72
2022/07/16 05:07:56;;;;;;;9.53;4.10;;;;;;;14.56;65.03;100914.81;4930496;28;20503;-75
2022/07/16 05:10:24;;;;;;;8.70;3.85;;;;;;;14.58;64.66;100906.72;4931413;28;20052;-73
2022/07/16 05:12:52;;;;;;;6.00;3.67;;;;;;;14.57;64.44;100900.53;4930586;28;20043;-75
2022/07/16 05:15:19;;;;;;;8.45;3.88;;;;;;;14.73;64.18;100913.88;4932155;28;20058;-73
2022/07/16 05:17:47;;;;;;;5.10;3.60;;;;;;;14.84;64.37;100927.47;4933999;28;20052;-73
2022/07/16 05:20:15;;;;;;;5.13;3.70;;;;;;;14.88;63.57;100930.81;4932268;28;20099;-73
2022/07/16 05:22:43;;;;;;;5.55;3.65;;;;;;;14.76;63.83;100910.19;4930884;28;20043;-73
2022/07/16 05:25:10;;;;;;;6.93;3.10;;;;;;;15.02;63.57;100938.91;4935142;28;20055;-75
2022/07/16 05:27:38;;;;;;;4.07;3.08;;;;;;;15.07;63.06;100936.84;4932356;28;20066;-74
2022/07/16 05:30:05;;;;;;;6.97;3.70;;;;;;;15.13;62.38;100936.47;4932056;28;20067;-73
2022/07/16 05:32:39;;;;;;;8.27;3.15;;;;;;;15.09;62.55;100922.47;4925708;28;20147;-73
2022/07/16 05:35:06;;;;;;;4.90;3.10;;;;;;;15.29;62.21;100936.44;4933005;28;20059;-73
2022/07/16 05:37:33;;;;;;;4.80;3.22;;;;;;;15.35;62.06;100938.78;4928504;28;20059;-74
2022/07/16 05:40:00;;;;;;;6.95;3.50;;;;;;;15.44;61.80;100932.88;4931061;28;20114;-73
2022/07/16 05:42:27;;;;;;;6.80;3.45;;;;;;;15.53;61.11;100920.81;4930861;28;20063;-74
2022/07/16 05:44:53;;;;;;;4.82;2.88;;;;;;;15.64;61.45;100921.94;4931966;28;20047;-74
2022/07/16 05:47:20;;;;;;;6.50;3.13;;;;;;;15.83;61.17;100931.53;4931787;28;20147;-74
2022/07/16 05:49:47;;;;;;;7.68;3.17;;;;;;;15.98;60.83;100933.25;4931079;28;20580;-74
2022/07/16 05:52:14;;;;;;;7.72;3.88;;;;;;;16.13;60.51;100937.66;4931242;28;20106;-74
2022/07/16 05:54:40;;;;;;;8.18;3.40;;;;;;;16.27;60.00;100926.97;4931614;28;20051;-73
2022/07/16 05:57:07;;;;;;;5.05;3.20;;;;;;;16.44;59.36;100925.94;4931843;28;20066;-72
2022/07/16 05:59:34;;;;;;;6.60;3.85;;;;;;;16.58;58.01;100925.91;4930334;28;20047;-72
2022/07/16 06:02:01;;;;;;;8.52;3.95;;;;;;;16.74;57.50;100934.72;4931099;28;20055;-72
2022/07/16 06:04:28;;;;;;;5.50;3.47;;;;;;;16.85;57.27;100926.00;4929694;28;20055;-74
2022/07/16 06:06:55;;;;;;;5.95;3.50;;;;;;;16.91;57.03;100904.19;4931075;28;20052;-73
2022/07/16 06:09:22;;;;;;;5.70;3.53;;;;;;;17.28;55.25;100928.56;4930091;28;20051;-73
2022/07/16 06:11:48;;;;;;;6.35;3.90;;;;;;;17.42;54.19;100926.66;4931182;28;20091;-74
2022/07/16 06:14:15;;;;;;;7.03;4.03;;;;;;;17.44;53.88;100924.75;4931422;28;20067;-74
2022/07/16 06:16:43;;;;;;;6.65;3.45;;;;;;;17.60;54.27;100927.25;4929687;28;20365;-72
2022/07/16 06:19:10;;;;;;;7.43;3.40;;;;;;;17.86;53.01;100922.81;4930203;28;20051;-73
2022/07/16 06:21:37;;;;;;;6.50;3.25;;;;;;;18.25;51.79;100927.25;4930842;28;20428;-73
2022/07/16 06:24:03;;;;;;;3.15;2.85;;;;;;;18.55;50.93;100932.25;4931404;28;20142;-73
2022/07/16 06:26:30;;;;;;;6.70;3.33;;;;;;;18.84;49.30;100911.38;4934172;28;20063;-73
2022/07/16 06:28:57;;;;;;;7.70;3.45;;;;;;;19.38;48.45;100924.34;4931131;28;20091;-73
2022/07/16 06:31:23;;;;;;;6.15;3.08;;;;;;;19.79;47.31;100926.63;4931079;28;20115;-73
2022/07/16 06:33:50;;;;;;;9.88;3.53;;;;;;;20.08;46.60;100930.59;4930782;28;20052;-74
2022/07/16 06:36:17;;;;;;;8.43;3.75;;;;;;;20.44;45.32;100910.72;4930895;28;20054;-74
2022/07/16 06:38:43;;;;;;;4.80;3.33;;;;;;;20.94;43.99;100936.22;4927300;28;20422;-73
2022/07/16 06:41:10;;;;;;;5.80;3.05;;;;;;;21.24;43.30;100930.22;4931278;28;20111;-72
2022/07/16 06:43:44;;;;;;;7.63;2.92;;;;;;;21.63;42.58;100931.38;4930710;28;20048;-74
2022/07/16 06:46:11;;;;;;;8.30;3.03;;;;;;;22.05;41.30;100937.66;4930906;28;20055;-72
2022/07/16 06:48:38;;;;;;;7.32;2.83;;;;;;;22.23;41.19;100928.97;4929414;28;20059;-72
2022/07/16 06:51:05;;;;;;;5.03;2.90;;;;;;;22.61;40.16;100923.75;4926533;28;20063;-73
2022/07/16 06:53:35;;;;;;;3.28;2.20;;;;;;;22.90;39.54;100931.13;4931373;28;20067;-73
2022/07/16 06:56:04;;;;;;;5.97;2.50;;;;;;;23.15;38.97;100927.03;4931023;28;20494;-74
2022/07/16 06:58:30;;;;;;;5.35;2.47;;;;;;;23.33;39.04;100931.63;4929157;28;20119;-73
2022/07/16 07:00:57;;;;;;;6.38;2.33;;;;;;;23.15;38.69;100927.88;4930731;28;20071;-74
2022/07/16 07:03:24;;;;;;;4.57;2.17;;;;;;;22.58;42.03;100940.22;4928954;29;20434;-73
2022/07/16 07:05:51;;;;;;;3.67;2.10;;;;;;;22.57;41.59;100925.00;4930449;28;20508;-72
2022/07/16 07:08:18;;;;;;;7.10;2.25;;;;;;;22.97;40.10;100929.59;4929289;28;20087;-75
2022/07/16 07:10:44;;;;;;;4.65;2.30;;;;;;;22.94;40.63;100929.88;4931548;28;20094;-73
2022/07/16 07:13:11;;;;;;;7.43;2.28;;;;;;;22.70;40.50;100925.63;4933797;28;20469;-72
2022/07/16 07:15:38;;;;;;;6.03;1.98;;;;;;;22.85;42.59;100927.97;4933982;28;20063;-74
2022/07/16 07:18:05;;;;;;;5.15;2.20;;;;;;;23.44;39.55;100923.41;4933948;28;20067;-72
2022/07/16 07:20:31;;;;;;;6.15;1.77;;;;;;;23.85;38.39;100923.25;4932758;28;20055;-73
2022/07/16 07:22:58;;;;;;;5.53;1.65;;;;;;;24.03;38.19;100929.63;4934111;28;20063;-74
2022/07/16 07:25:25;;;;;;;3.90;1.58;;;;;;;24.01;37.73;100926.22;4937287;28;20448;-73
2022/07/16 07:27:52;;;;;;;4.82;1.83;;;;;;;23.92;38.10;100911.72;4933206;28;20047;-73
2022/07/16 07:30:19;;;;;;;4.30;1.77;;;;;;;23.93;38.30;100923.34;4934029;28;20052;-73
2022/07/16 07:32:46;;;;;;;3.53;1.70;;;;;;;23.81;39.00;100933.50;4932924;28;20039;-73
2022/07/16 07:35:13;;;;;;;4.90;1.67;;;;;;;23.31;38.48;100924.63;4933690;28;20086;-72
2022/07/16 07:37:39;;;;;;;2.13;1.27;;;;;;;23.00;39.16;100935.53;4932298;28;20039;-74
2022/07/16 07:40:07;;;;;;;6.45;2.13;;;;;;;22.62;41.12;100930.88;4933761;28;20048;-73
2022/07/16 07:42:34;;;;;;;6.97;3.22;;;;;;;22.45;38.87;100928.81;4932072;28;20055;-74
2022/07/16 07:45:00;;;;;;;6.10;1.80;;;;;;;22.36;39.40;100921.50;4933634;28;20119;-73
2022/07/16 07:47:28;;;;;;;10.20;2.35;;;;;;;22.74;38.35;100947.81;4934459;28;20404;-74
2022/07/16 07:49:55;;;;;;;6.43;1.90;;;;;;;22.78;38.13;100930.38;4933509;28;20138;-73
2022/07/16 07:52:23;;;;;;;3.88;1.58;;;;;;;23.36;37.64;100941.28;4931837;28;20605;-73
2022/07/16 07:54:50;;;;;;;3.15;1.50;;;;;;;23.72;36.03;100928.97;4932877;28;20103;-74
2022/07/16 07:57:18;;;;;;;2.58;1.25;;;;;;;23.48;36.35;100936.59;4934427;28;20055;-73
2022/07/16 07:59:45;;;;;;;2.17;1.30;;;;;;;23.70;35.98;100949.88;4933076;28;20079;-74
2022/07/16 08:02:12;;;;;;;3.08;1.35;;;;;;;23.85;36.33;100940.31;4933296;28;20107;-75
2022/07/16 08:04:39;;;;;;;3.58;1.50;;;;;;;23.74;35.56;100949.47;4934192;28;20047;-73
2022/07/16 08:07:06;;;;;;;5.28;1.42;;;;;;;23.72;35.96;100937.94;4933189;28;20489;-73
2022/07/16 08:09:32;;;;;;;2.55;1.20;;;;;;;23.79;36.51;100949.00;4927704;28;20078;-72
2022/07/16 08:11:59;;;;;;;4.00;1.35;;;;;;;23.61;35.94;100921.00;4934044;28;20047;-73
2022/07/16 08:14:26;;;;;;;2.13;1.10;;;;;;;23.39;36.59;100947.28;4933549;28;20059;-74
2022/07/16 08:16:56;;;;;;;6.05;1.55;;;;;;;23.62;36.28;100945.16;4929584;28;20043;-73
2022/07/16 08:19:24;;;;;;;2.10;1.23;;;;;;;23.87;36.73;100941.03;4932509;28;20527;-74
2022/07/16 08:21:51;;;;;;;4.90;1.67;;;;;;;23.93;36.55;100936.88;4932766;28;20064;-74
2022/07/16 08:27:07;;;;;;;2.25;1.30;;;;;;;23.33;37.22;100952.38;4935407;28;20055;-73
2022/07/16 08:29:34;;;;;;;5.22;1.27;;;;;;;22.97;37.35;100932.28;4932224;28;20056;-75
2022/07/16 08:32:01;;;;;;;4.28;1.55;;;;;;;22.65;37.54;100935.16;4930782;29;20504;-74
2022/07/16 08:34:29;;;;;;;3.08;1.30;;;;;;;22.60;38.52;100943.63;4931509;28;20583;-74
2022/07/16 08:36:56;;;;;;;3.53;1.85;;;;;;;22.93;37.92;100941.66;4932249;28;20139;-73
2022/07/16 08:39:23;;;;;;;2.70;1.30;;;;;;;23.40;37.16;100934.63;4930467;28;20500;-74
2022/07/16 08:41:50;;;;;;;2.10;1.25;;;;;;;23.74;36.37;100932.38;4931876;28;20059;-74
2022/07/16 08:44:16;;;;;;;2.67;1.40;;;;;;;24.14;36.36;100916.78;4933037;28;20051;-77
2022/07/16 08:46:43;;;;;;;3.97;1.55;;;;;;;24.31;35.25;100933.28;4928013;28;20054;-74
2022/07/16 08:49:10;;;;;;;7.55;1.70;;;;;;;24.29;35.84;100933.41;4931425;28;20075;-74
2022/07/16 08:51:39;;;;;;;3.40;1.30;;;;;;;24.40;35.60;100933.22;4932635;28;20131;-73
2022/07/16 08:54:15;;;;;;;6.25;1.60;;;;;;;23.89;36.62;100944.47;4932974;28;20052;-73
2022/07/16 08:56:43;;;;;;;3.55;1.75;;;;;;;23.54;36.96;100944.19;4930193;28;20072;-75
2022/07/16 08:59:10;;;;;;;4.00;1.50;;;;;;;23.11;37.82;100918.38;4932423;28;20806;-73
2022/07/16 09:01:37;;;;;;;2.55;1.50;;;;;;;23.03;37.69;100940.69;4932649;29;20056;-74
2022/07/16 09:04:04;;;;;;;3.30;1.67;;;;;;;22.91;38.19;100940.94;4937008;28;20071;-73
2022/07/16 09:06:31;;;;;;;3.22;1.95;;;;;;;22.92;38.19;100921.91;4936830;28;20119;-74
2022/07/16 09:08:58;;;;;;;3.25;1.60;;;;;;;23.07;38.05;100933.16;4939486;28;20163;-74
2022/07/16 09:11:33;;;;;;;6.20;1.80;;;;;;;23.24;37.57;100934.31;4939315;28;20068;-75
2022/07/16 09:14:21;;;;;;;2.28;1.45;;;;;;;23.60;37.68;100941.78;4933580;28;20059;-74
2022/07/16 09:16:51;;;;;;;3.00;1.50;;;;;;;23.94;36.94;100922.38;4933578;28;20079;-74
2022/07/16 09:19:27;;;;;;;1.73;1.50;;;;;;;24.12;36.03;100935.00;4934230;28;20055;-78
2022/07/16 09:22:04;;;;;;;2.40;1.60;;;;;;;23.85;36.70;100950.28;4935609;28;20043;-75
2022/07/16 09:24:43;;;;;;;4.07;1.60;;;;;;;23.52;37.34;100946.16;4931719;28;20055;-73
2022/07/16 09:27:13;;;;;;;3.10;1.65;;;;;;;23.37;38.30;100943.00;4937530;28;20082;-73
2022/07/16 09:29:58;;;;;;;3.22;1.92;;;;;;;23.68;38.17;100950.00;4928842;29;20134;-74
2022/07/16 09:32:27;;;;;;;3.33;1.50;;;;;;;23.69;37.75;100950.88;4932319;28;20066;-73
2022/07/16 09:35:02;;;;;;;2.38;1.42;;;;;;;23.70;37.00;100923.69;4931751;28;20075;-73
2022/07/16 09:38:00;;;;;;;3.50;1.40;;;;;;;23.79;37.23;100938.19;4933075;28;20114;-73
2022/07/16 09:40:33;;;;;;;5.53;1.88;;;;;;;23.88;36.73;100931.94;4931443;28;20082;-75
2022/07/16 09:43:02;;;;;;;1.85;1.30;;;;;;;23.67;36.60;100960.97;4932617;28;20090;-74
2022/07/16 09:45:29;;;;;;;4.28;1.50;;;;;;;23.50;37.57;100948.97;4930725;29;20471;-73
2022/07/16 09:47:56;;;;;;;4.30;2.35;;;;;;;23.65;36.72;100944.03;4930706;28;20066;-74
2022/07/16 09:50:23;;;;;;;2.90;1.80;;;;;;;23.43;36.78;100932.50;4932092;28;20511;-73
2022/07/16 09:52:49;;;;;;;5.30;1.55;;;;;;;23.51;36.86;100941.72;4936924;28;20056;-73
2022/07/16 09:55:16;;;;;;;3.80;1.60;;;;;;;23.70;36.58;100942.63;4932518;28;20055;-73
2022/07/16 09:57:43;;;;;;;4.60;1.60;;;;;;;24.02;36.22;100939.59;4923623;28;20131;-72
2022/07/16 10:00:10;;;;;;;4.00;1.73;;;;;;;24.10;36.76;100947.81;4932249;28;20051;-75
2022/07/16 10:02:37;;;;;;;6.35;1.85;;;;;;;24.01;36.36;100927.06;4930746;28;20384;-74
2022/07/16 10:05:04;;;;;;;3.53;1.60;;;;;;;24.30;35.88;100954.06;4932101;28;20058;-74
2022/07/16 10:07:32;;;;;;;3.83;1.88;;;;;;;24.29;36.16;100937.97;4928848;28;20556;-73
2022/07/16 10:09:59;;;;;;;2.92;1.50;;;;;;;24.30;35.24;100956.78;4930664;28;20062;-72
2022/07/16 10:12:29;;;;;;;2.95;1.60;;;;;;;24.07;35.64;100940.00;4930593;28;20488;-74
2022/07/16 10:14:56;;;;;;;2.53;1.30;;;;;;;24.25;35.54;100950.09;4929194;29;20057;-74
2022/07/16 10:17:37;;;;;;;4.90;1.67;;;;;;;24.43;35.39;100962.72;4930859;28;20102;-74
2022/07/16 10:20:11;;;;;;;5.25;1.95;;;;;;;24.23;35.67;100965.63;4929294;28;20150;-73
2022/07/16 10:22:40;;;;;;;2.75;1.70;;;;;;;24.01;35.58;100959.53;4931976;28;20056;-74
2022/07/16 10:25:14;;;;;;;2.53;1.58;;;;;;;24.27;36.05;100954.38;4931852;29;20103;-74
2022/07/16 10:27:43;;;;;;;4.18;1.60;;;;;;;24.38;35.11;100961.47;4927624;28;20138;-73
2022/07/16 10:30:22;;;;;;;3.72;1.40;;;;;;;24.34;35.82;100960.91;4926242;28;20508;-74
2022/07/16 10:33:07;;;;;;;4.63;1.90;;;;;;;24.46;34.94;100953.47;4929553;28;20143;-75
2022/07/16 10:35:46;;;;;;;3.05;1.85;;;;;;;24.44;34.90;100955.44;4930310;28;20048;-73
2022/07/16 10:38:23;;;;;;;2.75;1.75;;;;;;;24.46;35.14;100954.31;4930399;28;20054;-73
2022/07/16 10:41:15;;;;;;;4.03;1.75;;;;;;;24.78;34.21;100942.19;4929863;28;20134;-74
2022/07/16 10:44:02;;;;;;;6.35;2.10;;;;;;;24.80;34.37;100953.75;4928127;28;20052;-74
2022/07/16 10:46:30;;;;;;;3.45;2.10;;;;;;;24.83;34.42;100958.88;4933481;28;20126;-73
2022/07/16 10:48:57;;;;;;;2.22;1.30;;;;;;;24.64;34.63;100956.25;4933740;28;20044;-73
2022/07/16 10:51:24;;;;;;;3.63;1.95;;;;;;;24.47;34.93;100968.69;4934638;28;20509;-73
2022/07/16 10:53:57;;;;;;;3.28;1.75;;;;;;;24.43;34.96;100964.56;4935381;28;20058;-73
2022/07/16 10:56:33;;;;;;;3.20;1.42;;;;;;;24.18;35.16;100965.19;4934826;28;20058;-73
2022/07/16 10:59:03;;;;;;;3.33;1.80;;;;;;;24.08;34.96;100952.53;4928233;28;20061;-74
2022/07/16 11:01:30;;;;;;;3.38;1.60;;;;;;;24.25;35.10;100975.31;4933963;28;20075;-73
2022/07/16 11:03:57;;;;;;;2.72;1.50;;;;;;;24.74;34.51;100963.31;4933580;28;20520;-74
2022/07/16 11:06:24;;;;;;;3.13;1.80;;;;;;;24.97;34.45;100973.78;4933414;28;20130;-73
2022/07/16 11:08:58;;;;;;;4.57;1.63;;;;;;;24.90;33.88;100967.22;4932839;28;20052;-73
2022/07/16 11:11:51;;;;;;;3.78;1.60;;;;;;;24.91;34.53;100977.91;4940237;28;20393;-74
2022/07/16 11:14:19;;;;;;;5.22;1.80;;;;;;;24.33;33.97;100942.97;4934249;28;20059;-75
2022/07/16 11:16:50;;;;;;;4.35;1.63;;;;;;;24.40;34.23;100975.69;4933752;28;20082;-75
2022/07/16 11:19:17;;;;;;;1.70;1.38;;;;;;;24.23;34.33;100969.22;4933174;28;20063;-75
2022/07/16 11:21:59;;;;;;;2.28;1.60;;;;;;;24.14;35.38;100967.31;4934951;28;20158;-73
2022/07/16 11:24:28;;;;;;;3.20;1.52;;;;;;;24.18;34.70;100979.56;4934503;28;20058;-75
2022/07/16 11:26:58;;;;;;;4.10;1.80;;;;;;;24.24;35.27;100976.31;4937257;28;20051;-73
2022/07/16 11:29:27;;;;;;;1.88;1.50;;;;;;;24.67;34.85;100980.31;4933037;28;20481;-74
2022/07/16 11:31:55;;;;;;;2.55;1.60;;;;;;;24.82;34.84;100981.53;4934056;28;20055;-74
2022/07/16 11:34:25;;;;;;;4.57;1.73;;;;;;;24.83;35.93;100989.53;4933377;28;20086;-73